createdAt,value
2024-02-22T00:01:12.392Z,100.00
2024-02-22T00:03:39.500Z,100.00
2024-02-22T00:06:06.583Z,100.00
2024-02-22T00:08:33.171Z,100.00
2024-02-22T00:10:59.870Z,100.00
2024-02-22T00:13:27.539Z,100.00
2024-02-22T00:15:54.142Z,100.00
2024-02-22T00:18:20.876Z,100.00
2024-02-22T00:20:47.412Z,100.00
2024-02-22T00:23:13.971Z,100.00
2024-02-22T00:25:40.726Z,100.00
2024-02-22T00:28:07.234Z,100.00
2024-02-22T00:30:33.941Z,100.00
2024-02-22T00:33:00.607Z,100.00
2024-02-22T00:35:28.221Z,100.00
2024-02-22T00:37:54.799Z,100.00
2024-02-22T00:40:21.511Z,100.00
2024-02-22T00:42:48.056Z,100.00
2024-02-22T00:45:15.813Z,100.00
2024-02-22T00:47:42.342Z,100.00
2024-02-22T00:50:09.746Z,100.00
2024-02-22T00:52:36.549Z,100.00
2024-02-22T00:55:03.239Z,100.00
2024-02-22T00:57:30.125Z,100.00
2024-02-22T00:59:56.928Z,100.00
2024-02-22T01:02:27.135Z,100.00
2024-02-22T01:04:54.390Z,100.00
2024-02-22T01:07:22.499Z,100.00
2024-02-22T01:09:49.435Z,100.00
2024-02-22T01:12:16.097Z,100.00
2024-02-22T01:14:42.653Z,100.00
2024-02-22T01:17:09.512Z,100.00
2024-02-22T01:19:36.079Z,100.00
2024-02-22T01:22:03.537Z,100.00
2024-02-22T01:24:30.579Z,100.00
2024-02-22T01:26:57.140Z,100.00
2024-02-22T01:29:23.761Z,100.00
2024-02-22T01:31:50.327Z,100.00
2024-02-22T01:34:17.189Z,100.00
2024-02-22T01:36:43.865Z,100.00
2024-02-22T01:39:10.939Z,100.00
2024-02-22T01:41:37.791Z,82.08
2024-02-22T01:44:04.881Z,100.00
2024-02-22T01:46:32.352Z,100.00
2024-02-22T01:49:00.510Z,100.00
2024-02-22T01:51:27.439Z,100.00
2024-02-22T01:53:54.724Z,100.00
2024-02-22T01:56:22.206Z,100.00
2024-02-22T01:58:50.880Z,100.00
2024-02-22T02:01:21.616Z,100.00
2024-02-22T02:03:50.834Z,100.00
2024-02-22T02:06:20.918Z,100.00
2024-02-22T02:08:48.077Z,100.00
2024-02-22T02:11:14.750Z,100.00
2024-02-22T02:13:41.369Z,100.00
2024-02-22T02:16:08.062Z,100.00
2024-02-22T02:18:34.875Z,100.00
2024-02-22T02:21:33.399Z,100.00
2024-02-22T02:24:29.242Z,100.00
2024-02-22T02:26:57.331Z,100.00
2024-02-22T02:29:25.404Z,100.00
2024-02-22T02:31:52.036Z,100.00
2024-02-22T02:34:18.642Z,100.00
2024-02-22T02:36:45.213Z,100.00
2024-02-22T02:39:11.726Z,100.00
2024-02-22T02:41:38.699Z,100.00
2024-02-22T02:44:05.616Z,100.00
2024-02-22T02:46:32.276Z,100.00
2024-02-22T02:48:58.807Z,100.00
2024-02-22T02:51:25.310Z,100.00
2024-02-22T02:53:51.813Z,100.00
2024-02-22T02:56:18.694Z,100.00
2024-02-22T02:58:45.341Z,100.00
2024-02-22T03:01:12.025Z,100.00
2024-02-22T03:03:38.717Z,100.00
2024-02-22T03:06:05.584Z,100.00
2024-02-22T03:08:32.230Z,100.00
2024-02-22T03:10:58.909Z,100.00
2024-02-22T03:13:25.657Z,100.00
2024-02-22T03:15:52.591Z,100.00
2024-02-22T03:18:19.274Z,100.00
2024-02-22T03:20:46.358Z,100.00
2024-02-22T03:23:13.604Z,100.00
2024-02-22T03:25:40.637Z,100.00
2024-02-22T03:28:07.793Z,100.00
2024-02-22T03:30:34.570Z,100.00
2024-02-22T03:33:02.599Z,100.00
2024-02-22T03:35:31.127Z,100.00
2024-02-22T03:37:57.978Z,100.00
2024-02-22T03:40:24.590Z,100.00
2024-02-22T03:42:51.083Z,100.00
2024-02-22T03:45:17.739Z,100.00
2024-02-22T03:47:44.330Z,100.00
2024-02-22T03:50:11.112Z,100.00
2024-02-22T03:52:37.840Z,100.00
2024-02-22T03:55:04.777Z,100.00
2024-02-22T03:57:31.469Z,100.00
2024-02-22T03:59:58.993Z,100.00
2024-02-22T04:02:26.166Z,100.00
2024-02-22T04:04:54.864Z,100.00
2024-02-22T04:07:23.985Z,100.00
2024-02-22T04:09:52.167Z,100.00
2024-02-22T04:12:18.688Z,100.00
2024-02-22T04:14:45.962Z,100.00
2024-02-22T04:17:12.874Z,100.00
2024-02-22T04:19:39.461Z,100.00
2024-02-22T04:22:05.985Z,100.00
2024-02-22T04:24:32.571Z,100.00
2024-02-22T04:27:00.143Z,100.00
2024-02-22T04:29:26.810Z,100.00
2024-02-22T04:31:53.538Z,100.00
2024-02-22T04:34:20.899Z,100.00
2024-02-22T04:36:48.708Z,100.00
2024-02-22T04:39:15.698Z,100.00
2024-02-22T04:41:42.227Z,100.00
2024-02-22T04:44:08.869Z,100.00
2024-02-22T04:46:37.357Z,100.00
2024-02-22T04:49:06.614Z,100.00
2024-02-22T04:51:34.057Z,100.00
2024-02-22T04:54:02.670Z,100.00
2024-02-22T04:56:29.717Z,100.00
2024-02-22T04:58:57.306Z,100.00
2024-02-22T05:01:25.392Z,100.00
2024-02-22T05:03:52.024Z,100.00
2024-02-22T05:06:18.944Z,100.00
2024-02-22T05:08:45.459Z,100.00
2024-02-22T05:11:13.476Z,100.00
2024-02-22T05:13:42.411Z,100.00
2024-02-22T05:16:09.675Z,100.00
2024-02-22T05:18:36.293Z,100.00
2024-02-22T05:21:02.930Z,100.00
2024-02-22T05:23:29.511Z,100.00
2024-02-22T05:25:56.119Z,100.00
2024-02-22T05:28:22.968Z,100.00
2024-02-22T05:30:50.325Z,100.00
2024-02-22T05:33:16.993Z,100.00
2024-02-22T05:35:43.933Z,100.00
2024-02-22T05:38:10.462Z,100.00
2024-02-22T05:40:37.133Z,100.00
2024-02-22T05:43:03.824Z,100.00
2024-02-22T05:45:45.836Z,100.00
2024-02-22T05:48:12.666Z,100.00
2024-02-22T05:50:39.628Z,100.00
2024-02-22T05:53:07.034Z,100.00
2024-02-22T05:55:33.643Z,100.00
2024-02-22T05:58:00.437Z,100.00
2024-02-22T06:00:27.047Z,100.00
2024-02-22T06:02:53.726Z,100.00
2024-02-22T06:05:21.187Z,100.00
2024-02-22T06:07:47.996Z,100.00
2024-02-22T06:10:14.910Z,100.00
2024-02-22T06:12:45.314Z,100.00
2024-02-22T06:15:12.468Z,100.00
2024-02-22T06:17:39.896Z,100.00
2024-02-22T06:20:07.700Z,100.00
2024-02-22T06:22:35.183Z,100.00
2024-02-22T06:25:02.547Z,100.00
2024-02-22T06:27:29.774Z,100.00
2024-02-22T06:29:56.588Z,100.00
2024-02-22T06:32:25.185Z,100.00
2024-02-22T06:34:52.290Z,100.00
2024-02-22T06:37:19.902Z,100.00
2024-02-22T06:39:46.688Z,100.00
2024-02-22T06:42:14.243Z,100.00
2024-02-22T06:44:40.749Z,100.00
2024-02-22T06:47:07.447Z,100.00
2024-02-22T06:49:34.557Z,100.00
2024-02-22T06:52:01.923Z,100.00
2024-02-22T06:54:29.500Z,100.00
2024-02-22T06:56:58.497Z,100.00
2024-02-22T06:59:25.339Z,100.00
2024-02-22T07:01:52.269Z,100.00
2024-02-22T07:04:19.159Z,100.00
2024-02-22T07:06:46.031Z,100.00
2024-02-22T07:09:13.148Z,100.00
2024-02-22T07:11:40.096Z,100.00
2024-02-22T07:14:07.028Z,100.00
2024-02-22T07:16:34.224Z,100.00
2024-02-22T07:19:01.090Z,100.00
2024-02-22T07:21:35.235Z,100.00
2024-02-22T07:24:04.268Z,100.00
2024-02-22T07:26:33.967Z,100.00
2024-02-22T07:29:00.513Z,100.00
2024-02-22T07:31:27.275Z,100.00
2024-02-22T07:33:55.011Z,100.00
2024-02-22T07:36:21.939Z,100.00
2024-02-22T07:38:48.510Z,100.00
2024-02-22T07:41:18.110Z,100.00
2024-02-22T07:43:46.631Z,100.00
2024-02-22T07:46:14.402Z,100.00
2024-02-22T07:48:44.223Z,100.00
2024-02-22T07:51:11.535Z,100.00
2024-02-22T07:53:39.009Z,100.00
2024-02-22T07:56:09.074Z,100.00
2024-02-22T07:58:50.683Z,100.00
2024-02-22T08:01:17.952Z,100.00
2024-02-22T08:03:45.124Z,100.00
2024-02-22T08:06:13.014Z,100.00
2024-02-22T08:08:40.722Z,100.00
2024-02-22T08:11:07.961Z,100.00
2024-02-22T08:13:34.725Z,100.00
2024-02-22T08:16:08.625Z,100.00
2024-02-22T08:18:39.474Z,100.00
2024-02-22T08:21:09.300Z,100.00
2024-02-22T08:23:36.312Z,100.00
2024-02-22T08:26:03.051Z,100.00
2024-02-22T08:28:30.146Z,100.00
2024-02-22T08:30:56.922Z,100.00
2024-02-22T08:33:27.522Z,100.00
2024-02-22T08:35:57.897Z,100.00
2024-02-22T08:38:27.840Z,100.00
2024-02-22T08:40:54.864Z,100.00
2024-02-22T08:43:21.765Z,100.00
2024-02-22T08:45:49.541Z,100.00
2024-02-22T08:48:16.783Z,100.00
2024-02-22T08:50:43.448Z,100.00
2024-02-22T08:53:10.562Z,100.00
2024-02-22T08:55:37.288Z,100.00
2024-02-22T08:58:04.096Z,100.00
2024-02-22T09:00:30.880Z,100.00
2024-02-22T09:02:57.793Z,100.00
2024-02-22T09:05:24.544Z,100.00
2024-02-22T09:07:51.939Z,100.00
2024-02-22T09:10:18.943Z,100.00
2024-02-22T09:12:45.868Z,100.00
2024-02-22T09:15:13.024Z,100.00
2024-02-22T09:17:39.922Z,100.00
2024-02-22T09:20:07.488Z,100.00
2024-02-22T09:22:34.631Z,100.00
2024-02-22T09:25:01.230Z,100.00
2024-02-22T09:27:30.114Z,100.00
2024-02-22T09:29:59.123Z,100.00
2024-02-22T09:32:25.815Z,100.00
2024-02-22T09:34:52.483Z,100.00
2024-02-22T09:37:20.280Z,100.00
2024-02-22T09:39:47.777Z,100.00
2024-02-22T09:42:14.680Z,100.00
2024-02-22T09:44:41.426Z,100.00
2024-02-22T09:47:09.412Z,100.00
2024-02-22T09:49:36.379Z,100.00
2024-02-22T09:52:03.571Z,100.00
2024-02-22T09:54:30.138Z,100.00
2024-02-22T09:56:57.172Z,100.00
2024-02-22T09:59:26.903Z,100.00
2024-02-22T10:01:57.264Z,100.00
2024-02-22T10:04:26.411Z,100.00
2024-02-22T10:07:05.217Z,100.00
2024-02-22T10:09:43.279Z,100.00
2024-02-22T10:12:10.174Z,100.00
2024-02-22T10:14:37.902Z,100.00
2024-02-22T10:17:08.189Z,100.00
2024-02-22T10:19:34.936Z,100.00
2024-02-22T10:22:01.557Z,100.00
2024-02-22T10:24:31.026Z,100.00
2024-02-22T10:27:05.991Z,100.00
2024-02-22T10:29:37.167Z,100.00
2024-02-22T10:32:05.415Z,100.00
2024-02-22T10:34:34.130Z,100.00
2024-02-22T10:37:05.281Z,100.00
2024-02-22T10:39:34.136Z,100.00
2024-02-22T10:42:00.682Z,100.00
2024-02-22T10:44:27.238Z,100.00
2024-02-22T10:46:54.307Z,100.00
2024-02-22T10:49:24.670Z,100.00
2024-02-22T10:51:53.673Z,100.00
2024-02-22T10:54:20.634Z,100.00
2024-02-22T10:56:50.132Z,100.00
2024-02-22T10:59:21.656Z,100.00
2024-02-22T11:01:50.849Z,100.00
2024-02-22T11:04:17.874Z,100.00
2024-02-22T11:06:45.028Z,100.00
2024-02-22T11:09:20.038Z,100.00
2024-02-22T11:11:52.674Z,100.00
2024-02-22T11:14:27.323Z,100.00
2024-02-22T11:16:54.112Z,100.00
2024-02-22T11:19:29.983Z,100.00
2024-02-22T11:21:56.774Z,100.00
2024-02-22T11:24:25.694Z,100.00
2024-02-22T11:26:56.837Z,100.00
2024-02-22T11:29:31.801Z,100.00
2024-02-22T11:32:02.894Z,100.00
2024-02-22T11:34:31.216Z,100.00
2024-02-22T11:37:09.943Z,100.00
2024-02-22T11:39:36.650Z,100.00
2024-02-22T11:42:03.918Z,100.00
2024-02-22T11:44:31.273Z,100.00
2024-02-22T11:46:58.321Z,100.00
2024-02-22T11:49:25.141Z,100.00
2024-02-22T11:51:51.859Z,100.00
2024-02-22T11:54:20.437Z,100.00
2024-02-22T11:56:47.197Z,100.00
2024-02-22T11:59:14.905Z,100.00
2024-02-22T12:01:42.956Z,100.00
2024-02-22T12:04:10.824Z,100.00
2024-02-22T12:06:38.943Z,100.00
2024-02-22T12:09:05.865Z,100.00
2024-02-22T12:11:32.539Z,100.00
2024-02-22T12:14:00.398Z,100.00
2024-02-22T12:16:28.151Z,100.00
2024-02-22T12:18:54.917Z,100.00
2024-02-22T12:21:27.842Z,100.00
2024-02-22T12:23:58.590Z,100.00
2024-02-22T12:26:25.414Z,100.00
2024-02-22T12:28:54.433Z,100.00
2024-02-22T12:31:22.345Z,100.00
2024-02-22T12:33:51.402Z,100.00
2024-02-22T12:36:25.129Z,100.00
2024-02-22T12:38:52.084Z,100.00
2024-02-22T12:41:19.347Z,100.00
2024-02-22T12:43:54.783Z,100.00
2024-02-22T12:46:21.703Z,100.00
2024-02-22T12:48:48.628Z,100.00
2024-02-22T12:51:20.329Z,100.00
2024-02-22T12:53:49.535Z,100.00
2024-02-22T12:56:16.359Z,100.00
2024-02-22T12:58:43.805Z,100.00
2024-02-22T13:01:10.617Z,100.00
2024-02-22T13:03:37.438Z,100.00
2024-02-22T13:06:04.613Z,100.00
2024-02-22T13:08:36.007Z,100.00
2024-02-22T13:11:04.868Z,100.00
2024-02-22T13:13:31.471Z,100.00
2024-02-22T13:15:59.225Z,100.00
2024-02-22T13:18:26.041Z,100.00
2024-02-22T13:20:53.229Z,100.00
2024-02-22T13:23:21.777Z,100.00
2024-02-22T13:25:48.464Z,100.00
2024-02-22T13:28:15.006Z,100.00
2024-02-22T13:30:41.560Z,100.00
2024-02-22T13:33:08.100Z,100.00
2024-02-22T13:35:34.812Z,100.00
2024-02-22T13:38:01.493Z,100.00
2024-02-22T13:40:28.990Z,100.00
2024-02-22T13:42:56.350Z,100.00
2024-02-22T13:45:22.901Z,100.00
2024-02-22T13:47:49.860Z,100.00
2024-02-22T13:50:17.832Z,100.00
2024-02-22T13:52:45.269Z,100.00
2024-02-22T13:55:12.567Z,100.00
2024-02-22T13:57:39.581Z,100.00
2024-02-22T14:00:07.701Z,100.00
2024-02-22T14:02:34.433Z,100.00
2024-02-22T14:05:01.327Z,100.00
2024-02-22T14:07:28.689Z,100.00
2024-02-22T14:09:55.513Z,100.00
2024-02-22T14:12:22.277Z,100.00
2024-02-22T14:14:49.105Z,100.00
2024-02-22T14:17:16.017Z,100.00
2024-02-22T14:19:42.980Z,100.00
2024-02-22T14:22:09.807Z,100.00
2024-02-22T14:24:36.530Z,100.00
2024-02-22T14:27:13.098Z,100.00
2024-02-22T14:29:43.662Z,100.00
2024-02-22T14:32:12.801Z,100.00
2024-02-22T14:34:42.735Z,100.00
2024-02-22T14:37:12.796Z,100.00
2024-02-22T14:39:39.975Z,100.00
2024-02-22T14:42:06.940Z,100.00
2024-02-22T14:44:34.008Z,100.00
2024-02-22T14:47:03.682Z,100.00
2024-02-22T14:49:30.609Z,100.00
2024-02-22T14:51:57.325Z,100.00
2024-02-22T14:54:24.053Z,100.00
2024-02-22T14:56:51.453Z,100.00
2024-02-22T14:59:19.969Z,100.00
2024-02-22T15:01:46.779Z,100.00
2024-02-22T15:04:13.575Z,100.00
2024-02-22T15:06:46.158Z,100.00
2024-02-22T15:09:17.050Z,100.00
2024-02-22T15:11:45.568Z,100.00
2024-02-22T15:14:16.672Z,100.00
2024-02-22T15:16:44.475Z,100.00
2024-02-22T15:19:12.880Z,100.00
2024-02-22T15:21:39.859Z,100.00
2024-02-22T15:24:07.151Z,100.00
2024-02-22T15:26:37.079Z,100.00
2024-02-22T15:29:03.953Z,100.00
2024-02-22T15:31:31.738Z,100.00
2024-02-22T15:34:05.285Z,100.00
2024-02-22T15:36:35.284Z,100.00
2024-02-22T15:39:02.097Z,100.00
2024-02-22T15:41:29.824Z,100.00
2024-02-22T15:43:57.155Z,100.00
2024-02-22T15:46:24.020Z,100.00
2024-02-22T15:48:52.152Z,100.00
2024-02-22T16:02:43.927Z,100.00
2024-02-22T16:05:10.875Z,100.00
2024-02-22T16:07:40.464Z,100.00
2024-02-22T16:10:07.642Z,100.00
2024-02-22T16:12:34.500Z,100.00
2024-02-22T17:00:38.365Z,100.00
2024-02-22T17:03:05.448Z,100.00
2024-02-22T17:05:32.653Z,100.00
2024-02-22T17:07:59.413Z,100.00
2024-02-22T17:10:25.961Z,100.00
2024-02-22T17:15:33.307Z,100.00
2024-02-22T17:18:04.408Z,100.00
2024-02-22T17:20:31.149Z,100.00
2024-02-22T17:22:58.919Z,100.00
2024-02-22T17:25:25.513Z,100.00
2024-02-22T17:27:52.439Z,100.00
2024-02-22T17:30:19.046Z,100.00
2024-02-22T17:32:45.578Z,100.00
2024-02-22T17:35:12.967Z,100.00
2024-02-22T17:37:39.607Z,100.00
2024-02-22T17:40:06.664Z,100.00
2024-02-22T17:42:33.295Z,100.00
2024-02-22T17:44:59.825Z,100.00
2024-02-22T17:47:26.901Z,100.00
2024-02-22T17:49:55.764Z,100.00
2024-02-22T17:52:22.406Z,100.00
2024-02-22T17:54:49.606Z,100.00
2024-02-22T17:57:16.277Z,100.00
2024-02-22T17:59:42.861Z,100.00
2024-02-22T18:02:09.488Z,100.00
2024-02-22T18:04:36.061Z,100.00
2024-02-22T18:07:02.756Z,100.00
2024-02-22T18:09:30.225Z,100.00
2024-02-22T18:11:57.024Z,100.00
2024-02-22T18:14:23.681Z,100.00
2024-02-22T18:16:50.310Z,100.00
2024-02-22T18:19:16.930Z,100.00
2024-02-22T18:21:43.522Z,100.00
2024-02-22T18:24:10.289Z,100.00
2024-02-22T18:26:37.300Z,100.00
2024-02-22T18:29:03.937Z,100.00
2024-02-22T18:31:30.594Z,100.00
2024-02-22T18:33:57.394Z,100.00
2024-02-22T18:36:24.627Z,100.00
2024-02-22T18:38:51.117Z,100.00
2024-02-22T18:41:18.295Z,100.00
2024-02-22T18:43:45.043Z,100.00
2024-02-22T18:46:12.582Z,100.00
2024-02-22T18:48:39.302Z,100.00
2024-02-22T18:51:05.982Z,100.00
2024-02-22T18:53:32.551Z,100.00
2024-02-22T18:56:00.214Z,100.00
2024-02-22T18:58:26.973Z,100.00
2024-02-22T19:00:53.799Z,100.00
2024-02-22T19:03:21.471Z,100.00
2024-02-22T19:05:49.890Z,100.00
2024-02-22T19:08:16.551Z,100.00
2024-02-22T19:10:44.306Z,100.00
2024-02-22T19:13:11.480Z,100.00
2024-02-22T19:15:38.031Z,100.00
2024-02-22T19:18:06.587Z,100.00
2024-02-22T19:20:33.199Z,100.00
2024-02-22T19:23:00.274Z,100.00
2024-02-22T19:25:27.966Z,100.00
2024-02-22T19:27:54.518Z,100.00
2024-02-22T19:30:21.173Z,100.00
2024-02-22T19:32:48.665Z,100.00
2024-02-22T19:35:20.182Z,100.00
2024-02-22T19:37:48.806Z,100.00
2024-02-22T19:40:15.903Z,100.00
2024-02-22T19:42:42.728Z,100.00
2024-02-22T19:45:09.899Z,100.00
2024-02-22T19:47:36.809Z,100.00
2024-02-22T19:50:05.187Z,100.00
2024-02-22T19:52:31.859Z,100.00
2024-02-22T19:54:58.385Z,100.00
2024-02-22T19:57:25.229Z,100.00
2024-02-22T19:59:51.859Z,100.00
2024-02-22T20:02:18.746Z,100.00
2024-02-22T20:04:45.606Z,100.00
2024-02-22T20:07:12.528Z,100.00
2024-02-22T20:09:40.761Z,100.00
2024-02-22T20:12:08.128Z,100.00
2024-02-22T20:14:35.140Z,100.00
2024-02-22T20:17:02.205Z,100.00
2024-02-22T20:19:29.012Z,100.00
2024-02-22T20:21:55.716Z,100.00
2024-02-22T20:24:22.448Z,100.00
2024-02-22T20:26:49.156Z,100.00
2024-02-22T20:29:15.955Z,100.00
2024-02-22T20:31:43.756Z,100.00
2024-02-22T20:34:10.449Z,100.00
2024-02-22T20:36:38.620Z,100.00
2024-02-22T20:39:09.465Z,100.00
2024-02-22T20:41:36.092Z,100.00
2024-02-22T20:44:03.454Z,100.00
2024-02-22T20:46:30.275Z,100.00
2024-02-22T20:48:57.567Z,100.00
2024-02-22T20:51:30.245Z,100.00
2024-02-22T20:53:57.286Z,100.00
2024-02-22T20:56:24.554Z,100.00
2024-02-22T20:58:51.347Z,100.00
2024-02-22T21:01:18.628Z,100.00
2024-02-22T21:03:45.182Z,100.00
2024-02-22T21:06:20.485Z,100.00
2024-02-22T21:08:48.397Z,100.00
2024-02-22T21:11:15.384Z,100.00
2024-02-22T21:13:42.588Z,100.00
2024-02-22T21:16:09.417Z,100.00
2024-02-22T21:18:36.214Z,100.00
2024-02-22T21:21:03.750Z,100.00
2024-02-22T21:23:30.674Z,100.00
2024-02-22T21:26:02.382Z,100.00
2024-02-22T21:28:30.472Z,100.00
2024-02-22T21:30:57.334Z,100.00
2024-02-22T21:33:26.259Z,100.00
2024-02-22T21:35:54.570Z,100.00
2024-02-22T21:38:21.187Z,100.00
2024-02-22T21:44:17.050Z,100.00
2024-02-22T21:46:43.637Z,100.00
2024-02-22T21:49:10.554Z,100.00
2024-02-22T21:51:43.406Z,100.00
2024-02-22T21:54:10.025Z,100.00
2024-02-22T21:56:36.746Z,100.00
2024-02-22T21:59:03.370Z,100.00
2024-02-22T22:01:29.914Z,100.00
2024-02-22T22:03:56.679Z,100.00
2024-02-22T22:06:25.158Z,100.00
2024-02-22T22:08:51.785Z,100.00
2024-02-22T22:11:18.399Z,100.00
2024-02-22T22:13:46.672Z,100.00
2024-02-22T22:16:13.278Z,100.00
2024-02-22T22:18:39.907Z,100.00
2024-02-22T22:21:17.253Z,100.00
2024-02-22T22:23:52.075Z,100.00
2024-02-22T22:26:18.722Z,100.00
2024-02-22T22:28:45.453Z,100.00
2024-02-22T22:31:12.231Z,100.00
2024-02-22T22:33:40.382Z,100.00
2024-02-22T22:36:07.364Z,100.00
2024-02-22T22:38:33.965Z,100.00
2024-02-22T22:41:00.530Z,98.28
2024-02-22T22:43:27.021Z,98.00
2024-02-22T22:45:55.469Z,95.41
2024-02-22T22:48:22.078Z,92.26
2024-02-22T22:50:48.612Z,93.07
2024-02-22T22:53:15.175Z,93.18
2024-02-22T22:55:41.742Z,90.33
2024-02-22T22:58:08.292Z,87.64
2024-02-22T23:00:36.133Z,86.81
2024-02-22T23:03:02.673Z,86.30
2024-02-22T23:05:29.468Z,84.17
2024-02-22T23:07:56.080Z,84.50
2024-02-22T23:10:24.247Z,83.97
2024-02-22T23:12:54.484Z,82.12
2024-02-22T23:15:21.841Z,85.15
2024-02-22T23:17:48.672Z,83.56
2024-02-22T23:20:15.404Z,83.94
2024-02-22T23:22:41.990Z,83.65
2024-02-22T23:25:09.417Z,83.48
2024-02-22T23:27:35.927Z,84.20
2024-02-22T23:30:02.744Z,83.19
2024-02-22T23:32:29.361Z,84.21
2024-02-22T23:34:55.948Z,85.09
2024-02-22T23:37:22.681Z,83.02
2024-02-22T23:39:49.270Z,82.55
2024-02-22T23:42:15.998Z,82.44
2024-02-22T23:44:42.582Z,83.13
2024-02-22T23:47:09.113Z,83.21
2024-02-22T23:49:35.658Z,82.54
2024-02-22T23:52:02.174Z,83.53
2024-02-22T23:54:28.760Z,83.24
2024-02-22T23:56:55.752Z,81.18
2024-02-22T23:59:22.698Z,80.94
